sensor_id;sensor_type;location;lat;lon;timestamp;P1;durP1;ratioP1;P2;durP2;ratioP2
72464;SDS011;60471;52.150;4.508;2023-05-10T00:01:35;53.10;;;37.38;;
72464;SDS011;60471;52.150;4.508;2023-05-10T00:04:01;59.90;;;39.63;;
72464;SDS011;60471;52.150;4.508;2023-05-10T00:06:27;57.22;;;38.83;;
72464;SDS011;60471;52.150;4.508;2023-05-10T00:08:53;84.82;;;45.03;;
72464;SDS011;60471;52.150;4.508;2023-05-10T00:11:19;74.55;;;44.05;;
72464;SDS011;60471;52.150;4.508;2023-05-10T00:13:46;55.45;;;40.97;;
72464;SDS011;60471;52.150;4.508;2023-05-10T00:16:13;78.03;;;45.75;;
72464;SDS011;60471;52.150;4.508;2023-05-10T00:18:39;62.17;;;40.22;;
72464;SDS011;60471;52.150;4.508;2023-05-10T00:21:06;52.78;;;36.97;;
72464;SDS011;60471;52.150;4.508;2023-05-10T00:23:32;56.90;;;39.72;;
72464;SDS011;60471;52.150;4.508;2023-05-10T00:25:58;64.93;;;39.35;;
72464;SDS011;60471;52.150;4.508;2023-05-10T00:28:24;93.00;;;47.20;;
72464;SDS011;60471;52.150;4.508;2023-05-10T00:30:52;61.63;;;40.13;;
72464;SDS011;60471;52.150;4.508;2023-05-10T00:33:18;62.15;;;39.10;;
72464;SDS011;60471;52.150;4.508;2023-05-10T00:35:45;85.18;;;48.00;;
72464;SDS011;60471;52.150;4.508;2023-05-10T00:38:11;93.03;;;47.60;;
72464;SDS011;60471;52.150;4.508;2023-05-10T00:40:37;104.97;;;49.75;;
72464;SDS011;60471;52.150;4.508;2023-05-10T00:43:03;85.70;;;50.72;;
72464;SDS011;60471;52.150;4.508;2023-05-10T00:45:31;70.18;;;43.75;;
72464;SDS011;60471;52.150;4.508;2023-05-10T00:47:59;75.85;;;45.70;;
72464;SDS011;60471;52.150;4.508;2023-05-10T00:50:30;65.38;;;44.33;;
72464;SDS011;60471;52.150;4.508;2023-05-10T00:52:58;66.80;;;46.28;;
72464;SDS011;60471;52.150;4.508;2023-05-10T00:55:26;65.97;;;47.35;;
72464;SDS011;60471;52.150;4.508;2023-05-10T00:57:53;140.80;;;58.33;;
72464;SDS011;60471;52.150;4.508;2023-05-10T01:00:19;122.82;;;57.70;;
72464;SDS011;60471;52.150;4.508;2023-05-10T01:02:46;71.75;;;49.95;;
72464;SDS011;60471;52.150;4.508;2023-05-10T01:05:12;78.10;;;49.20;;
72464;SDS011;60471;52.150;4.508;2023-05-10T01:07:39;233.98;;;69.80;;
72464;SDS011;60471;52.150;4.508;2023-05-10T01:10:06;480.10;;;81.15;;
72464;SDS011;60471;52.150;4.508;2023-05-10T01:12:35;244.00;;;69.15;;
72464;SDS011;60471;52.150;4.508;2023-05-10T01:15:06;207.37;;;63.40;;
72464;SDS011;60471;52.150;4.508;2023-05-10T01:17:35;174.57;;;65.57;;
72464;SDS011;60471;52.150;4.508;2023-05-10T01:20:06;86.40;;;53.00;;
72464;SDS011;60471;52.150;4.508;2023-05-10T01:35:51;810.13;;;94.53;;
72464;SDS011;60471;52.150;4.508;2023-05-10T01:38:44;76.95;;;43.78;;
72464;SDS011;60471;52.150;4.508;2023-05-10T01:46:51;78.05;;;40.42;;
72464;SDS011;60471;52.150;4.508;2023-05-10T01:49:29;464.08;;;64.07;;
72464;SDS011;60471;52.150;4.508;2023-05-10T01:52:04;459.52;;;66.07;;
72464;SDS011;60471;52.150;4.508;2023-05-10T01:54:44;326.67;;;56.85;;
72464;SDS011;60471;52.150;4.508;2023-05-10T01:57:26;361.15;;;64.47;;
72464;SDS011;60471;52.150;4.508;2023-05-10T01:59:59;66.82;;;42.13;;
72464;SDS011;60471;52.150;4.508;2023-05-10T02:02:29;114.97;;;47.20;;
72464;SDS011;60471;52.150;4.508;2023-05-10T02:05:00;94.88;;;43.17;;
72464;SDS011;60471;52.150;4.508;2023-05-10T02:07:31;165.15;;;52.97;;
72464;SDS011;60471;52.150;4.508;2023-05-10T02:10:01;146.07;;;51.03;;
72464;SDS011;60471;52.150;4.508;2023-05-10T02:12:31;63.20;;;39.92;;
72464;SDS011;60471;52.150;4.508;2023-05-10T02:15:02;75.80;;;45.80;;
72464;SDS011;60471;52.150;4.508;2023-05-10T02:17:32;66.18;;;41.20;;
72464;SDS011;60471;52.150;4.508;2023-05-10T02:20:03;89.70;;;50.53;;
72464;SDS011;60471;52.150;4.508;2023-05-10T02:22:36;91.85;;;48.85;;
72464;SDS011;60471;52.150;4.508;2023-05-10T02:25:06;87.18;;;50.05;;
72464;SDS011;60471;52.150;4.508;2023-05-10T02:27:34;73.57;;;44.67;;
72464;SDS011;60471;52.150;4.508;2023-05-10T02:30:03;67.18;;;43.05;;
72464;SDS011;60471;52.150;4.508;2023-05-10T02:32:32;80.05;;;44.40;;
72464;SDS011;60471;52.150;4.508;2023-05-10T02:35:01;84.38;;;45.20;;
72464;SDS011;60471;52.150;4.508;2023-05-10T02:37:29;80.78;;;43.72;;
72464;SDS011;60471;52.150;4.508;2023-05-10T02:39:56;74.18;;;43.53;;
72464;SDS011;60471;52.150;4.508;2023-05-10T02:42:27;87.60;;;47.90;;
72464;SDS011;60471;52.150;4.508;2023-05-10T02:44:59;77.53;;;43.70;;
72464;SDS011;60471;52.150;4.508;2023-05-10T02:47:28;78.28;;;41.80;;
72464;SDS011;60471;52.150;4.508;2023-05-10T02:49:55;75.05;;;42.53;;
72464;SDS011;60471;52.150;4.508;2023-05-10T02:52:23;67.93;;;44.20;;
72464;SDS011;60471;52.150;4.508;2023-05-10T02:54:58;73.72;;;42.47;;
72464;SDS011;60471;52.150;4.508;2023-05-10T02:57:30;83.80;;;46.00;;
72464;SDS011;60471;52.150;4.508;2023-05-10T03:00:00;72.85;;;44.92;;
72464;SDS011;60471;52.150;4.508;2023-05-10T03:02:28;83.32;;;46.25;;
72464;SDS011;60471;52.150;4.508;2023-05-10T03:04:56;82.57;;;47.55;;
72464;SDS011;60471;52.150;4.508;2023-05-10T03:07:22;73.30;;;45.88;;
72464;SDS011;60471;52.150;4.508;2023-05-10T03:09:49;80.90;;;46.90;;
72464;SDS011;60471;52.150;4.508;2023-05-10T03:15:33;73.47;;;43.58;;
72464;SDS011;60471;52.150;4.508;2023-05-10T03:18:48;67.68;;;42.42;;
72464;SDS011;60471;52.150;4.508;2023-05-10T03:21:22;65.78;;;42.33;;
72464;SDS011;60471;52.150;4.508;2023-05-10T03:23:59;54.03;;;34.58;;
72464;SDS011;60471;52.150;4.508;2023-05-10T03:26:33;54.80;;;34.60;;
72464;SDS011;60471;52.150;4.508;2023-05-10T03:29:00;61.35;;;36.22;;
72464;SDS011;60471;52.150;4.508;2023-05-10T03:31:28;53.78;;;34.13;;
72464;SDS011;60471;52.150;4.508;2023-05-10T03:33:54;51.83;;;31.27;;
72464;SDS011;60471;52.150;4.508;2023-05-10T03:36:21;52.15;;;33.92;;
72464;SDS011;60471;52.150;4.508;2023-05-10T03:38:47;46.90;;;31.30;;
72464;SDS011;60471;52.150;4.508;2023-05-10T03:41:13;62.28;;;34.10;;
72464;SDS011;60471;52.150;4.508;2023-05-10T03:43:39;50.17;;;31.98;;
72464;SDS011;60471;52.150;4.508;2023-05-10T03:46:06;47.00;;;32.67;;
72464;SDS011;60471;52.150;4.508;2023-05-10T03:48:33;44.88;;;32.45;;
72464;SDS011;60471;52.150;4.508;2023-05-10T03:50:59;46.25;;;27.52;;
72464;SDS011;60471;52.150;4.508;2023-05-10T03:53:25;49.78;;;31.40;;
72464;SDS011;60471;52.150;4.508;2023-05-10T03:55:52;54.42;;;34.65;;
72464;SDS011;60471;52.150;4.508;2023-05-10T03:58:18;55.17;;;32.17;;
72464;SDS011;60471;52.150;4.508;2023-05-10T04:00:45;51.22;;;30.38;;
72464;SDS011;60471;52.150;4.508;2023-05-10T04:03:12;56.67;;;30.58;;
72464;SDS011;60471;52.150;4.508;2023-05-10T04:05:39;67.85;;;36.60;;
72464;SDS011;60471;52.150;4.508;2023-05-10T04:08:05;60.63;;;36.33;;
72464;SDS011;60471;52.150;4.508;2023-05-10T04:10:32;64.80;;;37.25;;
72464;SDS011;60471;52.150;4.508;2023-05-10T04:12:58;65.90;;;34.38;;
72464;SDS011;60471;52.150;4.508;2023-05-10T04:15:24;126.35;;;67.43;;
72464;SDS011;60471;52.150;4.508;2023-05-10T04:17:50;92.55;;;54.28;;
72464;SDS011;60471;52.150;4.508;2023-05-10T04:20:17;59.90;;;33.03;;
72464;SDS011;60471;52.150;4.508;2023-05-10T04:22:43;64.63;;;30.55;;
72464;SDS011;60471;52.150;4.508;2023-05-10T04:25:09;53.10;;;29.33;;
72464;SDS011;60471;52.150;4.508;2023-05-10T04:27:36;51.72;;;27.27;;
72464;SDS011;60471;52.150;4.508;2023-05-10T04:30:02;41.85;;;25.05;;
72464;SDS011;60471;52.150;4.508;2023-05-10T04:32:29;37.58;;;23.17;;
72464;SDS011;60471;52.150;4.508;2023-05-10T04:34:55;44.72;;;25.70;;
72464;SDS011;60471;52.150;4.508;2023-05-10T04:37:22;41.53;;;23.05;;
72464;SDS011;60471;52.150;4.508;2023-05-10T04:39:48;36.95;;;20.13;;
72464;SDS011;60471;52.150;4.508;2023-05-10T04:42:14;31.80;;;19.58;;
72464;SDS011;60471;52.150;4.508;2023-05-10T04:44:41;33.60;;;19.65;;
72464;SDS011;60471;52.150;4.508;2023-05-10T04:47:07;32.33;;;20.33;;
72464;SDS011;60471;52.150;4.508;2023-05-10T04:49:33;33.13;;;21.15;;
72464;SDS011;60471;52.150;4.508;2023-05-10T04:51:59;40.80;;;21.98;;
72464;SDS011;60471;52.150;4.508;2023-05-10T04:54:25;39.55;;;22.48;;
72464;SDS011;60471;52.150;4.508;2023-05-10T04:56:52;41.65;;;23.63;;
72464;SDS011;60471;52.150;4.508;2023-05-10T04:59:18;37.63;;;22.98;;
72464;SDS011;60471;52.150;4.508;2023-05-10T05:01:44;57.83;;;37.38;;
72464;SDS011;60471;52.150;4.508;2023-05-10T05:04:10;34.05;;;21.80;;
72464;SDS011;60471;52.150;4.508;2023-05-10T05:06:37;33.03;;;20.67;;
72464;SDS011;60471;52.150;4.508;2023-05-10T05:09:03;43.22;;;24.08;;
72464;SDS011;60471;52.150;4.508;2023-05-10T05:11:29;36.63;;;21.63;;
72464;SDS011;60471;52.150;4.508;2023-05-10T05:13:55;38.92;;;21.48;;
72464;SDS011;60471;52.150;4.508;2023-05-10T05:16:22;38.75;;;22.40;;
72464;SDS011;60471;52.150;4.508;2023-05-10T05:18:48;42.92;;;22.25;;
72464;SDS011;60471;52.150;4.508;2023-05-10T05:21:15;37.55;;;21.05;;
72464;SDS011;60471;52.150;4.508;2023-05-10T05:23:42;36.38;;;22.27;;
72464;SDS011;60471;52.150;4.508;2023-05-10T05:26:09;34.67;;;20.92;;
72464;SDS011;60471;52.150;4.508;2023-05-10T05:28:35;36.47;;;21.15;;
72464;SDS011;60471;52.150;4.508;2023-05-10T05:31:03;37.95;;;19.65;;
72464;SDS011;60471;52.150;4.508;2023-05-10T05:33:31;31.63;;;18.90;;
72464;SDS011;60471;52.150;4.508;2023-05-10T05:35:57;36.17;;;19.40;;
72464;SDS011;60471;52.150;4.508;2023-05-10T05:38:27;60.97;;;42.60;;
72464;SDS011;60471;52.150;4.508;2023-05-10T05:40:53;89.03;;;59.17;;
72464;SDS011;60471;52.150;4.508;2023-05-10T05:43:20;49.75;;;28.65;;
72464;SDS011;60471;52.150;4.508;2023-05-10T05:45:46;38.17;;;16.73;;
72464;SDS011;60471;52.150;4.508;2023-05-10T05:48:12;29.60;;;16.38;;
72464;SDS011;60471;52.150;4.508;2023-05-10T05:50:38;29.83;;;14.48;;
72464;SDS011;60471;52.150;4.508;2023-05-10T05:53:05;21.65;;;11.13;;
72464;SDS011;60471;52.150;4.508;2023-05-10T05:55:31;19.88;;;11.40;;
72464;SDS011;60471;52.150;4.508;2023-05-10T05:57:57;23.13;;;15.02;;
72464;SDS011;60471;52.150;4.508;2023-05-10T06:00:24;36.50;;;23.20;;
72464;SDS011;60471;52.150;4.508;2023-05-10T06:02:50;18.98;;;11.05;;
72464;SDS011;60471;52.150;4.508;2023-05-10T06:05:16;15.25;;;9.20;;
72464;SDS011;60471;52.150;4.508;2023-05-10T06:07:42;11.63;;;7.20;;
72464;SDS011;60471;52.150;4.508;2023-05-10T06:10:09;13.10;;;7.72;;
72464;SDS011;60471;52.150;4.508;2023-05-10T06:12:35;14.40;;;7.90;;
72464;SDS011;60471;52.150;4.508;2023-05-10T06:15:02;12.13;;;7.43;;
72464;SDS011;60471;52.150;4.508;2023-05-10T06:17:29;13.55;;;7.15;;
72464;SDS011;60471;52.150;4.508;2023-05-10T06:19:55;54.95;;;42.33;;
72464;SDS011;60471;52.150;4.508;2023-05-10T06:22:22;53.60;;;41.80;;
72464;SDS011;60471;52.150;4.508;2023-05-10T06:24:48;11.85;;;7.22;;
72464;SDS011;60471;52.150;4.508;2023-05-10T06:27:15;12.05;;;6.80;;
72464;SDS011;60471;52.150;4.508;2023-05-10T06:29:41;12.00;;;6.50;;
72464;SDS011;60471;52.150;4.508;2023-05-10T06:32:07;11.48;;;6.72;;
72464;SDS011;60471;52.150;4.508;2023-05-10T06:34:34;11.73;;;6.65;;
72464;SDS011;60471;52.150;4.508;2023-05-10T06:37:00;9.90;;;5.90;;
72464;SDS011;60471;52.150;4.508;2023-05-10T06:39:26;10.10;;;5.95;;
72464;SDS011;60471;52.150;4.508;2023-05-10T06:41:52;10.73;;;5.78;;
72464;SDS011;60471;52.150;4.508;2023-05-10T06:44:18;11.52;;;6.47;;
72464;SDS011;60471;52.150;4.508;2023-05-10T06:46:44;10.20;;;6.13;;
72464;SDS011;60471;52.150;4.508;2023-05-10T06:49:11;13.32;;;6.93;;
72464;SDS011;60471;52.150;4.508;2023-05-10T06:51:37;11.77;;;7.15;;
72464;SDS011;60471;52.150;4.508;2023-05-10T06:54:03;16.30;;;10.65;;
72464;SDS011;60471;52.150;4.508;2023-05-10T06:56:29;10.82;;;7.10;;
72464;SDS011;60471;52.150;4.508;2023-05-10T06:58:55;10.95;;;6.53;;
72464;SDS011;60471;52.150;4.508;2023-05-10T07:01:22;10.32;;;6.43;;
72464;SDS011;60471;52.150;4.508;2023-05-10T07:03:48;13.10;;;8.60;;
72464;SDS011;60471;52.150;4.508;2023-05-10T07:06:14;12.13;;;7.18;;
72464;SDS011;60471;52.150;4.508;2023-05-10T07:08:40;29.80;;;21.60;;
72464;SDS011;60471;52.150;4.508;2023-05-10T07:11:07;18.20;;;12.00;;
72464;SDS011;60471;52.150;4.508;2023-05-10T07:13:33;26.42;;;19.05;;
72464;SDS011;60471;52.150;4.508;2023-05-10T07:16:00;20.85;;;12.48;;
72464;SDS011;60471;52.150;4.508;2023-05-10T07:18:28;14.15;;;8.30;;
72464;SDS011;60471;52.150;4.508;2023-05-10T07:20:54;17.48;;;11.20;;
72464;SDS011;60471;52.150;4.508;2023-05-10T07:23:23;11.98;;;6.78;;
72464;SDS011;60471;52.150;4.508;2023-05-10T07:25:50;12.88;;;6.15;;
72464;SDS011;60471;52.150;4.508;2023-05-10T07:28:17;17.45;;;9.38;;
72464;SDS011;60471;52.150;4.508;2023-05-10T07:30:44;20.60;;;13.00;;
72464;SDS011;60471;52.150;4.508;2023-05-10T07:33:12;14.82;;;9.13;;
72464;SDS011;60471;52.150;4.508;2023-05-10T07:35:39;20.45;;;11.73;;
72464;SDS011;60471;52.150;4.508;2023-05-10T07:38:06;13.13;;;7.53;;
72464;SDS011;60471;52.150;4.508;2023-05-10T07:40:32;13.82;;;6.90;;
72464;SDS011;60471;52.150;4.508;2023-05-10T07:42:59;15.38;;;6.95;;
72464;SDS011;60471;52.150;4.508;2023-05-10T07:45:28;15.30;;;8.38;;
72464;SDS011;60471;52.150;4.508;2023-05-10T07:47:54;17.40;;;10.70;;
72464;SDS011;60471;52.150;4.508;2023-05-10T07:50:20;12.82;;;5.72;;
72464;SDS011;60471;52.150;4.508;2023-05-10T07:52:47;12.05;;;5.88;;
72464;SDS011;60471;52.150;4.508;2023-05-10T07:55:14;11.52;;;6.30;;
72464;SDS011;60471;52.150;4.508;2023-05-10T07:57:40;12.95;;;5.05;;
72464;SDS011;60471;52.150;4.508;2023-05-10T08:00:08;10.18;;;4.80;;
72464;SDS011;60471;52.150;4.508;2023-05-10T08:02:35;9.00;;;4.18;;
72464;SDS011;60471;52.150;4.508;2023-05-10T08:05:01;9.57;;;3.70;;
72464;SDS011;60471;52.150;4.508;2023-05-10T08:07:28;9.68;;;3.92;;
72464;SDS011;60471;52.150;4.508;2023-05-10T08:09:54;8.50;;;3.63;;
72464;SDS011;60471;52.150;4.508;2023-05-10T08:12:20;11.55;;;4.47;;
72464;SDS011;60471;52.150;4.508;2023-05-10T08:14:47;10.80;;;6.03;;
72464;SDS011;60471;52.150;4.508;2023-05-10T08:17:13;33.20;;;21.50;;
72464;SDS011;60471;52.150;4.508;2023-05-10T08:19:39;8.77;;;3.92;;
72464;SDS011;60471;52.150;4.508;2023-05-10T08:22:05;7.38;;;3.10;;
72464;SDS011;60471;52.150;4.508;2023-05-10T08:24:32;8.20;;;3.15;;
72464;SDS011;60471;52.150;4.508;2023-05-10T08:26:58;9.82;;;4.10;;
72464;SDS011;60471;52.150;4.508;2023-05-10T08:29:24;42.03;;;29.40;;
72464;SDS011;60471;52.150;4.508;2023-05-10T08:31:50;10.02;;;3.65;;
72464;SDS011;60471;52.150;4.508;2023-05-10T08:34:16;10.57;;;3.80;;
72464;SDS011;60471;52.150;4.508;2023-05-10T08:36:43;10.00;;;3.65;;
72464;SDS011;60471;52.150;4.508;2023-05-10T08:39:09;8.43;;;3.53;;
72464;SDS011;60471;52.150;4.508;2023-05-10T08:41:35;8.80;;;3.58;;
72464;SDS011;60471;52.150;4.508;2023-05-10T08:44:05;9.55;;;3.92;;
72464;SDS011;60471;52.150;4.508;2023-05-10T08:46:33;8.75;;;3.95;;
72464;SDS011;60471;52.150;4.508;2023-05-10T08:49:06;10.47;;;4.17;;
72464;SDS011;60471;52.150;4.508;2023-05-10T08:51:36;10.48;;;3.80;;
72464;SDS011;60471;52.150;4.508;2023-05-10T08:54:12;8.82;;;3.95;;
72464;SDS011;60471;52.150;4.508;2023-05-10T08:56:39;11.35;;;4.57;;
72464;SDS011;60471;52.150;4.508;2023-05-10T08:59:05;9.43;;;4.30;;
72464;SDS011;60471;52.150;4.508;2023-05-10T09:01:31;7.88;;;3.70;;
72464;SDS011;60471;52.150;4.508;2023-05-10T09:04:02;9.10;;;4.03;;
72464;SDS011;60471;52.150;4.508;2023-05-10T09:06:29;9.38;;;4.30;;
72464;SDS011;60471;52.150;4.508;2023-05-10T09:08:56;10.48;;;4.97;;
72464;SDS011;60471;52.150;4.508;2023-05-10T09:11:22;11.75;;;4.55;;
72464;SDS011;60471;52.150;4.508;2023-05-10T09:13:50;8.05;;;4.13;;
72464;SDS011;60471;52.150;4.508;2023-05-10T09:16:18;10.07;;;4.15;;
72464;SDS011;60471;52.150;4.508;2023-05-10T09:39:40;12.38;;;5.43;;
72464;SDS011;60471;52.150;4.508;2023-05-10T09:42:07;14.20;;;5.97;;
72464;SDS011;60471;52.150;4.508;2023-05-10T09:44:35;11.73;;;6.10;;
72464;SDS011;60471;52.150;4.508;2023-05-10T09:47:03;12.48;;;6.10;;
72464;SDS011;60471;52.150;4.508;2023-05-10T09:49:30;12.15;;;5.93;;
72464;SDS011;60471;52.150;4.508;2023-05-10T09:52:00;12.98;;;6.32;;
72464;SDS011;60471;52.150;4.508;2023-05-10T09:54:32;11.18;;;5.63;;
72464;SDS011;60471;52.150;4.508;2023-05-10T09:57:00;11.55;;;6.22;;
72464;SDS011;60471;52.150;4.508;2023-05-10T09:59:28;14.48;;;6.97;;
72464;SDS011;60471;52.150;4.508;2023-05-10T10:01:56;13.90;;;6.97;;
72464;SDS011;60471;52.150;4.508;2023-05-10T10:04:25;14.07;;;7.63;;
72464;SDS011;60471;52.150;4.508;2023-05-10T10:07:04;16.08;;;8.10;;
72464;SDS011;60471;52.150;4.508;2023-05-10T10:09:31;13.98;;;7.45;;
72464;SDS011;60471;52.150;4.508;2023-05-10T10:11:59;18.17;;;8.60;;
72464;SDS011;60471;52.150;4.508;2023-05-10T10:14:28;20.85;;;9.88;;
72464;SDS011;60471;52.150;4.508;2023-05-10T10:16:55;16.95;;;9.85;;
72464;SDS011;60471;52.150;4.508;2023-05-10T10:19:21;22.13;;;10.82;;
72464;SDS011;60471;52.150;4.508;2023-05-10T10:21:49;19.77;;;10.15;;
72464;SDS011;60471;52.150;4.508;2023-05-10T10:24:16;21.17;;;10.50;;
72464;SDS011;60471;52.150;4.508;2023-05-10T10:26:42;20.10;;;10.70;;
72464;SDS011;60471;52.150;4.508;2023-05-10T10:34:32;23.80;;;11.50;;
72464;SDS011;60471;52.150;4.508;2023-05-10T10:36:59;35.10;;;13.85;;
72464;SDS011;60471;52.150;4.508;2023-05-10T10:39:31;30.98;;;14.63;;
72464;SDS011;60471;52.150;4.508;2023-05-10T10:41:58;34.13;;;14.85;;
72464;SDS011;60471;52.150;4.508;2023-05-10T10:44:26;28.48;;;12.73;;
72464;SDS011;60471;52.150;4.508;2023-05-10T10:47:00;26.77;;;14.45;;
72464;SDS011;60471;52.150;4.508;2023-05-10T10:49:51;34.50;;;15.25;;
72464;SDS011;60471;52.150;4.508;2023-05-10T10:52:36;27.70;;;14.15;;
72464;SDS011;60471;52.150;4.508;2023-05-10T11:03:10;25.38;;;14.10;;
72464;SDS011;60471;52.150;4.508;2023-05-10T11:05:45;23.63;;;12.73;;
72464;SDS011;60471;52.150;4.508;2023-05-10T11:08:18;33.80;;;14.70;;
72464;SDS011;60471;52.150;4.508;2023-05-10T11:15:55;29.35;;;13.88;;
72464;SDS011;60471;52.150;4.508;2023-05-10T11:18:23;27.80;;;13.07;;
72464;SDS011;60471;52.150;4.508;2023-05-10T11:20:57;24.35;;;11.30;;
72464;SDS011;60471;52.150;4.508;2023-05-10T11:26:09;26.92;;;12.32;;
72464;SDS011;60471;52.150;4.508;2023-05-10T11:28:41;26.25;;;12.48;;
72464;SDS011;60471;52.150;4.508;2023-05-10T11:31:09;23.52;;;11.43;;
72464;SDS011;60471;52.150;4.508;2023-05-10T11:33:42;22.10;;;11.63;;
72464;SDS011;60471;52.150;4.508;2023-05-10T11:36:13;25.30;;;11.27;;
72464;SDS011;60471;52.150;4.508;2023-05-10T11:38:48;17.42;;;10.07;;
72464;SDS011;60471;52.150;4.508;2023-05-10T11:41:15;18.33;;;9.90;;
72464;SDS011;60471;52.150;4.508;2023-05-10T11:43:45;19.17;;;10.48;;
72464;SDS011;60471;52.150;4.508;2023-05-10T11:46:15;17.75;;;9.63;;
72464;SDS011;60471;52.150;4.508;2023-05-10T11:48:46;19.88;;;8.75;;
72464;SDS011;60471;52.150;4.508;2023-05-10T11:51:19;16.02;;;8.75;;
72464;SDS011;60471;52.150;4.508;2023-05-10T11:53:50;17.75;;;8.77;;
72464;SDS011;60471;52.150;4.508;2023-05-10T11:56:20;15.82;;;7.28;;
72464;SDS011;60471;52.150;4.508;2023-05-10T11:58:52;13.15;;;6.43;;
72464;SDS011;60471;52.150;4.508;2023-05-10T12:01:24;14.05;;;6.43;;
72464;SDS011;60471;52.150;4.508;2023-05-10T12:03:52;10.90;;;5.00;;
72464;SDS011;60471;52.150;4.508;2023-05-10T12:06:21;11.30;;;4.30;;
72464;SDS011;60471;52.150;4.508;2023-05-10T12:08:48;11.07;;;3.25;;
72464;SDS011;60471;52.150;4.508;2023-05-10T12:11:23;8.80;;;3.28;;
72464;SDS011;60471;52.150;4.508;2023-05-10T12:13:51;8.88;;;3.30;;
72464;SDS011;60471;52.150;4.508;2023-05-10T12:16:19;9.70;;;3.78;;
72464;SDS011;60471;52.150;4.508;2023-05-10T12:18:48;13.95;;;6.28;;
72464;SDS011;60471;52.150;4.508;2023-05-10T12:21:16;16.00;;;7.97;;
72464;SDS011;60471;52.150;4.508;2023-05-10T12:23:50;20.17;;;9.43;;
72464;SDS011;60471;52.150;4.508;2023-05-10T12:26:21;20.63;;;11.18;;
72464;SDS011;60471;52.150;4.508;2023-05-10T12:28:48;23.73;;;12.13;;
72464;SDS011;60471;52.150;4.508;2023-05-10T12:31:15;21.23;;;11.10;;
72464;SDS011;60471;52.150;4.508;2023-05-10T12:33:42;27.02;;;12.32;;
72464;SDS011;60471;52.150;4.508;2023-05-10T12:36:10;28.15;;;13.07;;
72464;SDS011;60471;52.150;4.508;2023-05-10T12:38:39;22.75;;;11.82;;
72464;SDS011;60471;52.150;4.508;2023-05-10T12:41:14;25.35;;;12.90;;
72464;SDS011;60471;52.150;4.508;2023-05-10T12:43:43;27.17;;;12.82;;
72464;SDS011;60471;52.150;4.508;2023-05-10T12:46:11;26.85;;;11.77;;
72464;SDS011;60471;52.150;4.508;2023-05-10T12:48:43;23.52;;;11.98;;
72464;SDS011;60471;52.150;4.508;2023-05-10T12:51:20;22.10;;;11.43;;
72464;SDS011;60471;52.150;4.508;2023-05-10T12:53:47;21.30;;;10.50;;
72464;SDS011;60471;52.150;4.508;2023-05-10T12:56:14;23.45;;;10.93;;
72464;SDS011;60471;52.150;4.508;2023-05-10T12:58:40;23.27;;;11.82;;
72464;SDS011;60471;52.150;4.508;2023-05-10T13:01:06;23.33;;;11.77;;
72464;SDS011;60471;52.150;4.508;2023-05-10T13:03:33;27.25;;;12.88;;
72464;SDS011;60471;52.150;4.508;2023-05-10T13:05:59;21.90;;;12.45;;
72464;SDS011;60471;52.150;4.508;2023-05-10T13:08:25;30.30;;;13.00;;
72464;SDS011;60471;52.150;4.508;2023-05-10T13:10:51;23.95;;;12.80;;
72464;SDS011;60471;52.150;4.508;2023-05-10T13:13:18;21.67;;;12.43;;
72464;SDS011;60471;52.150;4.508;2023-05-10T13:15:44;22.10;;;11.45;;
72464;SDS011;60471;52.150;4.508;2023-05-10T13:18:10;21.02;;;11.18;;
72464;SDS011;60471;52.150;4.508;2023-05-10T13:20:36;19.73;;;11.27;;
72464;SDS011;60471;52.150;4.508;2023-05-10T13:23:03;22.20;;;12.55;;
72464;SDS011;60471;52.150;4.508;2023-05-10T13:25:29;21.15;;;12.80;;
72464;SDS011;60471;52.150;4.508;2023-05-10T13:27:55;23.52;;;12.60;;
72464;SDS011;60471;52.150;4.508;2023-05-10T13:30:21;24.27;;;13.35;;
72464;SDS011;60471;52.150;4.508;2023-05-10T13:32:49;21.10;;;12.98;;
72464;SDS011;60471;52.150;4.508;2023-05-10T13:35:15;20.52;;;10.52;;
72464;SDS011;60471;52.150;4.508;2023-05-10T13:37:42;19.52;;;9.93;;
72464;SDS011;60471;52.150;4.508;2023-05-10T13:40:08;15.57;;;9.20;;
72464;SDS011;60471;52.150;4.508;2023-05-10T13:42:34;18.20;;;9.70;;
72464;SDS011;60471;52.150;4.508;2023-05-10T13:45:01;17.33;;;9.25;;
72464;SDS011;60471;52.150;4.508;2023-05-10T13:47:27;19.83;;;9.43;;
72464;SDS011;60471;52.150;4.508;2023-05-10T13:49:53;15.43;;;8.70;;
72464;SDS011;60471;52.150;4.508;2023-05-10T13:52:20;19.10;;;8.85;;
72464;SDS011;60471;52.150;4.508;2023-05-10T13:54:46;16.50;;;8.95;;
72464;SDS011;60471;52.150;4.508;2023-05-10T13:57:12;17.40;;;9.38;;
72464;SDS011;60471;52.150;4.508;2023-05-10T13:59:39;20.35;;;9.93;;
72464;SDS011;60471;52.150;4.508;2023-05-10T14:02:05;16.92;;;9.05;;
72464;SDS011;60471;52.150;4.508;2023-05-10T14:04:32;15.23;;;8.70;;
72464;SDS011;60471;52.150;4.508;2023-05-10T14:06:59;14.10;;;7.03;;
72464;SDS011;60471;52.150;4.508;2023-05-10T14:09:26;14.68;;;7.85;;
72464;SDS011;60471;52.150;4.508;2023-05-10T14:11:52;13.82;;;7.03;;
72464;SDS011;60471;52.150;4.508;2023-05-10T14:14:18;18.08;;;7.53;;
72464;SDS011;60471;52.150;4.508;2023-05-10T14:16:44;17.33;;;8.32;;
72464;SDS011;60471;52.150;4.508;2023-05-10T14:19:10;15.68;;;8.15;;
72464;SDS011;60471;52.150;4.508;2023-05-10T14:21:37;18.17;;;7.78;;
72464;SDS011;60471;52.150;4.508;2023-05-10T14:24:04;12.48;;;6.10;;
72464;SDS011;60471;52.150;4.508;2023-05-10T14:26:30;13.43;;;5.40;;
72464;SDS011;60471;52.150;4.508;2023-05-10T14:28:57;11.85;;;6.03;;
72464;SDS011;60471;52.150;4.508;2023-05-10T14:31:23;11.27;;;5.32;;
72464;SDS011;60471;52.150;4.508;2023-05-10T14:33:51;11.65;;;5.55;;
72464;SDS011;60471;52.150;4.508;2023-05-10T14:36:17;13.18;;;6.90;;
72464;SDS011;60471;52.150;4.508;2023-05-10T14:38:43;13.93;;;6.85;;
72464;SDS011;60471;52.150;4.508;2023-05-10T14:41:10;13.60;;;6.57;;
72464;SDS011;60471;52.150;4.508;2023-05-10T14:43:40;11.18;;;5.90;;
72464;SDS011;60471;52.150;4.508;2023-05-10T14:46:06;13.07;;;6.63;;
72464;SDS011;60471;52.150;4.508;2023-05-10T14:48:33;14.13;;;7.32;;
72464;SDS011;60471;52.150;4.508;2023-05-10T14:50:59;14.65;;;7.95;;
72464;SDS011;60471;52.150;4.508;2023-05-10T14:53:25;16.30;;;7.90;;
72464;SDS011;60471;52.150;4.508;2023-05-10T14:55:51;12.65;;;7.65;;
72464;SDS011;60471;52.150;4.508;2023-05-10T14:58:17;13.50;;;7.00;;
72464;SDS011;60471;52.150;4.508;2023-05-10T15:00:44;14.77;;;7.05;;
72464;SDS011;60471;52.150;4.508;2023-05-10T15:03:10;14.82;;;7.53;;
72464;SDS011;60471;52.150;4.508;2023-05-10T15:05:36;14.40;;;7.75;;
72464;SDS011;60471;52.150;4.508;2023-05-10T15:08:03;16.27;;;8.48;;
72464;SDS011;60471;52.150;4.508;2023-05-10T15:10:31;15.57;;;8.57;;
72464;SDS011;60471;52.150;4.508;2023-05-10T15:12:58;15.98;;;9.38;;
72464;SDS011;60471;52.150;4.508;2023-05-10T15:15:25;15.30;;;8.40;;
72464;SDS011;60471;52.150;4.508;2023-05-10T15:17:51;16.55;;;8.73;;
72464;SDS011;60471;52.150;4.508;2023-05-10T15:20:17;18.10;;;9.18;;
72464;SDS011;60471;52.150;4.508;2023-05-10T15:22:44;18.80;;;10.45;;
72464;SDS011;60471;52.150;4.508;2023-05-10T15:25:10;19.63;;;10.52;;
72464;SDS011;60471;52.150;4.508;2023-05-10T15:27:36;20.30;;;11.40;;
72464;SDS011;60471;52.150;4.508;2023-05-10T15:30:02;19.60;;;11.27;;
72464;SDS011;60471;52.150;4.508;2023-05-10T15:32:29;21.42;;;12.45;;
72464;SDS011;60471;52.150;4.508;2023-05-10T15:34:55;22.15;;;13.02;;